Terminal Aerodrome Forecast
Issued by NWS

Home | Current Version | Previous Version | Text Only | Print | Product List | Glossary On
Versions: 1 2 3 4 5 6 7 8 9 10 11 12 13 14 15 16 17 18 19 20 21 22 23
000
FTUS43 KGRB 161133
TAFMTW
TAF
KMTW 161133Z 1612/1712 VRB03KT 3SM BR SCT004 BKN120
      TEMPO 1612/1614 1SM BR BKN004 BKN012
     FM161500 05003KT P6SM FEW060 BKN120
     FM161800 10007KT P6SM SCT120 BKN200
     FM170300 09008KT P6SM VCSH SCT040 BKN080
     FM170600 12008KT 5SM SHRA VCTS BKN025CB
     FM170900 15010G18KT 2SM SHRA BR VCTS OVC010CB=

USA.gov is the U.S. government's official web portal to all federal, state and local government web resources and services.